createdAt,value
2022-10-07T00:00:51.175Z,12.80
2022-10-07T00:03:19.682Z,12.80
2022-10-07T00:05:47.094Z,12.90
2022-10-07T00:08:14.331Z,12.90
2022-10-07T00:10:42.261Z,12.90
2022-10-07T00:13:09.880Z,12.80
2022-10-07T00:15:37.130Z,12.80
2022-10-07T00:18:04.416Z,12.80
2022-10-07T00:20:31.625Z,12.90
2022-10-07T00:22:59.389Z,12.80
2022-10-07T00:25:26.569Z,12.90
2022-10-07T00:27:53.804Z,12.80
2022-10-07T00:30:22.124Z,12.80
2022-10-07T00:32:49.320Z,12.80
2022-10-07T00:35:16.517Z,12.80
2022-10-07T00:37:44.038Z,12.80
2022-10-07T00:40:12.571Z,12.80
2022-10-07T00:42:40.542Z,12.80
2022-10-07T00:45:15.034Z,12.80
2022-10-07T00:47:44.959Z,12.80
2022-10-07T00:50:16.002Z,12.80
2022-10-07T00:52:49.500Z,12.80
2022-10-07T00:55:19.591Z,12.80
2022-10-07T00:57:47.230Z,12.80
2022-10-07T01:00:14.780Z,12.80
2022-10-07T01:02:43.663Z,12.80
2022-10-07T01:05:11.152Z,12.80
2022-10-07T01:07:39.061Z,12.80
2022-10-07T01:10:06.601Z,12.80
2022-10-07T01:12:52.617Z,12.80
2022-10-07T01:15:37.875Z,12.80
2022-10-07T01:18:23.648Z,12.80
2022-10-07T01:20:56.703Z,12.80
2022-10-07T01:23:41.815Z,12.80
2022-10-07T01:26:15.239Z,12.80
2022-10-07T01:28:54.170Z,12.80
2022-10-07T01:31:23.059Z,12.80
2022-10-07T01:33:50.364Z,12.80
2022-10-07T01:36:17.943Z,12.80
2022-10-07T01:38:51.225Z,12.80
2022-10-07T01:41:19.424Z,12.80
2022-10-07T01:43:46.996Z,12.70
2022-10-07T01:46:21.781Z,12.70
2022-10-07T01:48:49.171Z,12.70
2022-10-07T01:51:19.247Z,12.70
2022-10-07T01:53:53.519Z,12.70
2022-10-07T01:56:58.977Z,12.70
2022-10-07T01:59:53.617Z,12.70
2022-10-07T02:02:34.723Z,12.70
2022-10-07T02:05:32.362Z,12.60
2022-10-07T02:08:18.919Z,12.60
2022-10-07T02:11:00.421Z,12.70
2022-10-07T02:13:38.285Z,12.60
2022-10-07T02:16:25.557Z,12.60
2022-10-07T02:18:53.324Z,12.60
2022-10-07T02:21:23.363Z,12.60
2022-10-07T02:23:51.286Z,12.60
2022-10-07T02:26:20.973Z,12.60
2022-10-07T02:28:48.643Z,12.60
2022-10-07T02:31:18.125Z,12.60
2022-10-07T02:33:47.079Z,12.60
2022-10-07T02:36:17.611Z,12.60
2022-10-07T02:38:44.942Z,12.50
2022-10-07T02:41:41.876Z,12.50
2022-10-07T02:44:18.644Z,12.50
2022-10-07T02:46:48.909Z,12.50
2022-10-07T02:49:17.839Z,12.50
2022-10-07T02:52:06.566Z,12.40
2022-10-07T02:54:39.597Z,12.30
2022-10-07T02:57:06.898Z,12.30
2022-10-07T02:59:34.292Z,12.20
2022-10-07T03:02:02.653Z,12.20
2022-10-07T03:04:30.026Z,12.20
2022-10-07T03:06:58.808Z,12.10
2022-10-07T03:09:26.306Z,12.10
2022-10-07T03:11:53.542Z,12.00
2022-10-07T03:14:20.775Z,12.00
2022-10-07T03:16:48.081Z,11.90
2022-10-07T03:19:15.297Z,11.90
2022-10-07T03:21:56.886Z,11.90
2022-10-07T03:24:24.648Z,11.80
2022-10-07T03:26:52.087Z,11.70
2022-10-07T03:29:20.234Z,11.60
2022-10-07T03:31:47.477Z,11.60
2022-10-07T03:34:14.685Z,11.50
2022-10-07T03:36:45.423Z,11.50
2022-10-07T03:39:13.113Z,11.50
2022-10-07T03:41:42.154Z,11.40
2022-10-07T03:44:10.886Z,11.40
2022-10-07T03:46:38.259Z,11.40
2022-10-07T03:49:05.730Z,11.30
2022-10-07T03:51:33.491Z,11.30
2022-10-07T03:54:01.849Z,11.30
2022-10-07T03:56:32.357Z,11.30
2022-10-07T03:59:00.968Z,11.20
2022-10-07T04:01:31.611Z,11.20
2022-10-07T04:04:02.880Z,11.20
2022-10-07T04:06:34.776Z,11.10
2022-10-07T04:09:06.050Z,11.10
2022-10-07T04:11:34.687Z,11.00
2022-10-07T04:14:01.988Z,11.00
2022-10-07T04:16:32.723Z,10.90
2022-10-07T04:19:01.994Z,10.90
2022-10-07T04:21:29.933Z,10.90
2022-10-07T04:23:57.242Z,10.90
2022-10-07T04:26:24.564Z,10.90
2022-10-07T04:28:51.974Z,10.90
2022-10-07T04:31:21.923Z,10.80
2022-10-07T04:33:55.809Z,10.80
2022-10-07T04:36:27.781Z,10.80
2022-10-07T04:39:02.359Z,10.80
2022-10-07T04:41:34.543Z,10.70
2022-10-07T04:44:02.514Z,10.70
2022-10-07T04:46:33.915Z,10.70
2022-10-07T04:49:06.315Z,10.70
2022-10-07T04:51:33.536Z,10.70
2022-10-07T04:54:01.735Z,10.70
2022-10-07T04:56:35.016Z,10.60
2022-10-07T04:59:05.729Z,10.50
2022-10-07T05:01:33.311Z,10.50
2022-10-07T05:04:00.638Z,10.50
2022-10-07T05:06:28.307Z,10.40
2022-10-07T05:08:56.665Z,10.40
2022-10-07T05:11:25.903Z,10.40
2022-10-07T05:14:08.391Z,10.40
2022-10-07T05:16:36.832Z,10.40
2022-10-07T05:19:05.284Z,10.50
2022-10-07T05:21:33.426Z,10.50
2022-10-07T05:24:01.233Z,10.50
2022-10-07T05:26:34.508Z,10.60
2022-10-07T05:29:03.454Z,10.60
2022-10-07T05:31:37.780Z,10.60
2022-10-07T05:34:06.474Z,10.70
2022-10-07T05:36:34.776Z,10.70
2022-10-07T05:39:03.754Z,10.80
2022-10-07T05:41:45.640Z,10.80
2022-10-07T05:44:15.000Z,10.80
2022-10-07T05:46:42.810Z,10.80
2022-10-07T05:49:12.041Z,10.90
2022-10-07T05:51:40.630Z,10.90
2022-10-07T05:54:08.458Z,10.90
2022-10-07T05:56:39.791Z,10.90
2022-10-07T05:59:07.283Z,10.90
2022-10-07T06:01:34.940Z,10.90
2022-10-07T06:04:08.126Z,11.00
2022-10-07T06:06:38.665Z,11.00
2022-10-07T06:09:29.475Z,11.00
2022-10-07T06:12:16.373Z,11.00
2022-10-07T06:14:44.677Z,11.10
2022-10-07T06:17:12.781Z,11.10
2022-10-07T06:19:41.847Z,11.10
2022-10-07T06:22:09.473Z,11.20
2022-10-07T06:24:38.249Z,11.20
2022-10-07T06:27:07.225Z,11.30
2022-10-07T06:29:35.445Z,11.30
2022-10-07T06:32:02.876Z,11.30
2022-10-07T06:34:30.988Z,11.40
2022-10-07T06:36:58.245Z,11.40
2022-10-07T06:39:26.298Z,11.40
2022-10-07T06:41:54.607Z,11.40
2022-10-07T06:44:42.994Z,11.50
2022-10-07T06:47:12.330Z,11.50
2022-10-07T06:49:42.022Z,11.60
2022-10-07T06:52:09.233Z,11.60
2022-10-07T06:54:37.578Z,11.70
2022-10-07T06:57:20.447Z,11.70
2022-10-07T06:59:54.903Z,11.80
2022-10-07T07:02:22.283Z,11.80
2022-10-07T07:04:52.922Z,11.90
2022-10-07T07:07:23.915Z,12.00
2022-10-07T07:09:51.848Z,12.00
2022-10-07T07:12:22.615Z,12.00
2022-10-07T07:14:50.333Z,12.00
2022-10-07T07:17:19.403Z,12.10
2022-10-07T07:19:46.712Z,12.10
2022-10-07T07:22:14.249Z,12.20
2022-10-07T07:24:43.159Z,12.20
2022-10-07T07:27:12.209Z,12.20
2022-10-07T07:29:39.599Z,12.20
2022-10-07T07:32:08.238Z,12.20
2022-10-07T07:34:39.207Z,12.20
2022-10-07T07:37:08.315Z,12.30
2022-10-07T07:39:42.647Z,12.30
2022-10-07T07:42:12.961Z,12.30
2022-10-07T07:44:40.376Z,12.40
2022-10-07T07:47:12.867Z,12.40
2022-10-07T07:49:40.365Z,12.40
2022-10-07T07:52:11.594Z,12.40
2022-10-07T07:54:47.565Z,12.50
2022-10-07T07:57:14.882Z,12.50
2022-10-07T07:59:42.505Z,12.50
2022-10-07T08:02:12.102Z,12.50
2022-10-07T08:04:41.505Z,12.50
2022-10-07T08:07:11.419Z,12.60
2022-10-07T08:09:39.513Z,12.60
2022-10-07T08:12:07.832Z,12.60
2022-10-07T08:14:36.954Z,12.60
2022-10-07T08:17:04.283Z,12.70
2022-10-07T08:19:31.577Z,12.70
2022-10-07T08:21:59.958Z,12.80
2022-10-07T08:24:28.576Z,12.80
2022-10-07T08:26:55.870Z,12.80
2022-10-07T08:29:23.972Z,12.80
2022-10-07T08:31:51.759Z,12.90
2022-10-07T08:34:18.949Z,13.00
2022-10-07T08:36:47.646Z,12.90
2022-10-07T08:39:15.112Z,13.00
2022-10-07T08:41:48.131Z,13.00
2022-10-07T08:44:17.841Z,13.10
2022-10-07T08:47:21.809Z,13.10
2022-10-07T08:50:18.147Z,13.20
2022-10-07T08:52:48.661Z,13.30
2022-10-07T08:55:18.636Z,13.40
2022-10-07T08:57:47.780Z,13.50
2022-10-07T09:00:17.722Z,13.50
2022-10-07T09:02:44.999Z,13.50
2022-10-07T09:05:22.618Z,13.60
2022-10-07T09:08:04.847Z,13.60
2022-10-07T09:10:40.596Z,13.60
2022-10-07T09:13:31.035Z,13.60
2022-10-07T09:16:10.277Z,13.60
2022-10-07T09:18:59.851Z,13.60
2022-10-07T09:21:33.983Z,13.70
2022-10-07T09:24:22.945Z,13.70
2022-10-07T09:26:54.235Z,13.80
2022-10-07T09:29:22.365Z,13.80
2022-10-07T09:31:49.506Z,13.90
2022-10-07T09:34:24.999Z,13.90
2022-10-07T09:37:21.141Z,14.00
2022-10-07T09:39:50.349Z,14.00
2022-10-07T09:42:38.945Z,14.00
2022-10-07T09:45:28.355Z,14.10
2022-10-07T09:48:07.176Z,14.10
2022-10-07T09:50:41.350Z,14.20
2022-10-07T09:53:24.108Z,14.20
2022-10-07T09:55:52.536Z,14.20
2022-10-07T09:58:19.728Z,14.10
2022-10-07T10:00:51.346Z,14.10
2022-10-07T10:03:18.811Z,14.20
2022-10-07T10:05:52.156Z,14.20
2022-10-07T10:08:23.067Z,14.20
2022-10-07T10:10:51.998Z,14.20
2022-10-07T10:13:45.606Z,14.20
2022-10-07T10:16:24.991Z,14.30
2022-10-07T10:18:55.965Z,14.20
2022-10-07T10:21:36.811Z,14.20
2022-10-07T10:24:11.439Z,14.30
2022-10-07T10:26:50.390Z,14.30
2022-10-07T10:29:24.392Z,14.40
2022-10-07T10:32:00.534Z,14.40
2022-10-07T10:35:01.922Z,14.50
2022-10-07T10:37:41.963Z,14.60
2022-10-07T10:40:38.312Z,14.80
2022-10-07T10:43:28.785Z,14.90
2022-10-07T10:46:01.340Z,15.10
2022-10-07T10:48:44.512Z,15.30
2022-10-07T10:51:55.712Z,15.40
2022-10-07T10:54:46.957Z,15.70
2022-10-07T10:57:23.123Z,15.80
2022-10-07T11:00:08.309Z,15.90
2022-10-07T11:02:44.342Z,16.00
2022-10-07T11:05:21.784Z,16.10
2022-10-07T11:08:02.166Z,16.20
2022-10-07T11:10:41.188Z,16.20
2022-10-07T11:13:23.507Z,16.30
2022-10-07T11:15:57.059Z,16.30
2022-10-07T11:18:38.851Z,16.50
2022-10-07T11:21:08.315Z,16.50
2022-10-07T11:23:38.363Z,16.60
2022-10-07T11:26:20.599Z,16.60
2022-10-07T11:28:48.054Z,16.70
2022-10-07T11:31:39.827Z,16.70
2022-10-07T11:34:18.526Z,16.90
2022-10-07T11:36:55.623Z,17.00
2022-10-07T11:39:23.963Z,17.10
2022-10-07T11:42:01.655Z,17.10
2022-10-07T11:44:48.586Z,17.20
2022-10-07T11:47:17.255Z,17.20
2022-10-07T11:49:47.150Z,17.30
2022-10-07T11:52:28.620Z,17.40
2022-10-07T11:55:05.942Z,17.40
2022-10-07T11:57:34.943Z,17.50
2022-10-07T12:00:26.171Z,17.60
2022-10-07T12:02:55.180Z,17.60
2022-10-07T12:05:34.669Z,17.60
2022-10-07T12:08:24.960Z,17.60
2022-10-07T12:10:55.498Z,17.70
2022-10-07T12:13:22.697Z,17.60
2022-10-07T12:15:50.331Z,17.70
2022-10-07T12:18:26.114Z,17.60
2022-10-07T12:20:53.382Z,17.70
2022-10-07T12:23:25.647Z,17.80
2022-10-07T12:26:30.355Z,17.80
2022-10-07T12:28:57.627Z,17.80
2022-10-07T12:31:24.880Z,17.80
2022-10-07T12:33:58.307Z,17.80
2022-10-07T12:36:29.848Z,17.70
2022-10-07T12:39:00.060Z,17.70
2022-10-07T12:41:39.982Z,17.80
2022-10-07T12:44:31.603Z,17.80
2022-10-07T12:47:08.294Z,17.80
2022-10-07T12:49:51.792Z,17.80
2022-10-07T12:52:20.970Z,17.70
2022-10-07T12:54:56.331Z,17.50
2022-10-07T12:57:25.425Z,17.40
2022-10-07T13:00:01.779Z,17.40
2022-10-07T13:03:06.808Z,17.50
2022-10-07T13:06:03.586Z,17.50
2022-10-07T13:08:44.703Z,17.50
2022-10-07T13:11:30.049Z,17.40
2022-10-07T13:14:09.281Z,17.20
2022-10-07T13:17:19.629Z,17.00
2022-10-07T13:19:58.706Z,16.80
2022-10-07T13:22:25.932Z,16.60
2022-10-07T13:24:56.993Z,16.60
2022-10-07T13:27:34.560Z,16.70
2022-10-07T13:30:02.480Z,16.80
2022-10-07T13:32:31.106Z,16.90
2022-10-07T13:34:58.770Z,16.90
2022-10-07T13:37:37.685Z,16.90
2022-10-07T13:40:35.166Z,17.00
2022-10-07T13:43:04.911Z,17.00
2022-10-07T13:45:33.276Z,16.90
2022-10-07T13:48:00.638Z,16.90
2022-10-07T13:50:29.281Z,16.90
2022-10-07T13:52:56.536Z,16.80
2022-10-07T13:55:31.369Z,16.80
2022-10-07T13:58:00.783Z,16.80
2022-10-07T14:00:28.525Z,16.80
2022-10-07T14:02:55.883Z,16.70
2022-10-07T14:05:28.380Z,16.70
2022-10-07T14:08:15.061Z,16.70
2022-10-07T14:11:19.554Z,16.60
2022-10-07T14:13:46.755Z,16.60
2022-10-07T14:16:18.388Z,16.50
2022-10-07T14:18:45.616Z,16.50
2022-10-07T14:21:17.383Z,16.40
2022-10-07T14:23:46.783Z,16.40
2022-10-07T14:26:17.991Z,16.40
2022-10-07T14:28:45.175Z,16.30
2022-10-07T14:31:33.788Z,16.20
2022-10-07T14:34:38.323Z,16.20
2022-10-07T14:37:29.756Z,16.10
2022-10-07T14:39:58.285Z,16.10
2022-10-07T14:42:34.802Z,16.00
2022-10-07T14:45:02.924Z,15.90
2022-10-07T14:47:37.463Z,15.80
2022-10-07T14:50:05.199Z,15.70
2022-10-07T14:52:34.655Z,15.70
2022-10-07T14:55:07.560Z,15.60
2022-10-07T14:57:34.775Z,15.60
2022-10-07T15:00:02.090Z,15.50
2022-10-07T15:02:29.306Z,15.50
2022-10-07T15:04:56.595Z,15.40
2022-10-07T15:07:23.846Z,15.40
2022-10-07T15:09:51.073Z,15.40
2022-10-07T15:12:18.330Z,15.40
2022-10-07T15:14:45.545Z,15.40
2022-10-07T15:17:14.152Z,15.30
2022-10-07T15:19:41.440Z,15.30
2022-10-07T15:22:08.662Z,15.30
2022-10-07T15:24:36.533Z,15.20
2022-10-07T15:27:06.368Z,15.10
2022-10-07T15:29:33.566Z,15.10
2022-10-07T15:32:00.831Z,15.10
2022-10-07T15:34:28.117Z,15.10
2022-10-07T15:36:55.311Z,15.00
2022-10-07T15:39:22.546Z,15.00
2022-10-07T15:41:49.730Z,14.90
2022-10-07T15:44:22.016Z,14.90
2022-10-07T15:46:52.537Z,14.90
2022-10-07T15:49:20.058Z,14.90
2022-10-07T15:51:47.583Z,14.80
2022-10-07T15:54:14.821Z,14.80
2022-10-07T15:56:42.739Z,14.70
2022-10-07T15:59:10.097Z,14.70
2022-10-07T16:01:37.469Z,14.60
2022-10-07T16:04:05.873Z,14.60
2022-10-07T16:06:34.615Z,14.60
2022-10-07T16:09:02.022Z,14.50
2022-10-07T16:11:29.670Z,14.40
2022-10-07T16:13:58.179Z,14.40
2022-10-07T16:16:26.484Z,14.40
2022-10-07T16:18:54.594Z,14.30
2022-10-07T16:21:32.477Z,14.30
2022-10-07T16:24:15.875Z,14.20
2022-10-07T16:26:43.585Z,14.20
2022-10-07T16:29:37.794Z,14.10
2022-10-07T16:32:05.504Z,14.10
2022-10-07T16:34:32.743Z,14.00
2022-10-07T16:37:00.017Z,13.90
2022-10-07T16:39:27.309Z,13.90
2022-10-07T16:41:55.430Z,13.80
2022-10-07T16:44:23.609Z,13.80
2022-10-07T16:46:56.368Z,13.80
2022-10-07T16:49:25.746Z,13.70
2022-10-07T16:51:53.092Z,13.60
2022-10-07T16:54:21.519Z,13.60
2022-10-07T16:56:52.415Z,13.50
2022-10-07T16:59:23.508Z,13.40
2022-10-07T17:01:52.857Z,13.40
2022-10-07T17:04:20.355Z,13.30
2022-10-07T17:06:47.681Z,13.30
2022-10-07T17:09:15.007Z,13.20
2022-10-07T17:11:42.254Z,13.20
2022-10-07T17:14:10.464Z,13.10
2022-10-07T17:16:39.599Z,13.00
2022-10-07T17:19:07.015Z,13.00
2022-10-07T17:21:36.074Z,12.90
2022-10-07T17:24:04.046Z,12.90
2022-10-07T17:26:31.285Z,12.90
2022-10-07T17:29:09.702Z,12.80
2022-10-07T17:31:39.324Z,12.70
2022-10-07T17:34:06.827Z,12.70
2022-10-07T17:36:34.211Z,12.60
2022-10-07T17:39:01.423Z,12.60
2022-10-07T17:41:32.617Z,12.60
2022-10-07T17:44:01.606Z,12.50
2022-10-07T17:46:31.295Z,12.50
2022-10-07T17:48:59.193Z,12.50
2022-10-07T17:51:28.879Z,12.40
2022-10-07T17:53:56.425Z,12.40
2022-10-07T17:56:23.748Z,12.40
2022-10-07T17:58:51.061Z,12.40
2022-10-07T18:01:23.978Z,12.30
2022-10-07T18:03:52.683Z,12.30
2022-10-07T18:06:20.148Z,12.20
2022-10-07T18:08:48.008Z,12.20
2022-10-07T18:11:18.035Z,12.20
2022-10-07T18:14:03.733Z,12.20
2022-10-07T18:16:34.530Z,12.20
2022-10-07T18:19:02.004Z,12.20
2022-10-07T18:21:30.394Z,12.10
2022-10-07T18:23:58.027Z,12.10
2022-10-07T18:26:25.240Z,12.10
2022-10-07T18:28:52.515Z,12.10
2022-10-07T18:31:19.820Z,12.10
2022-10-07T18:33:47.138Z,12.10
2022-10-07T18:36:16.305Z,12.10
2022-10-07T18:38:43.966Z,12.10
2022-10-07T18:41:13.185Z,12.10
2022-10-07T18:43:40.726Z,12.00
2022-10-07T18:46:13.016Z,12.00
2022-10-07T18:48:41.838Z,12.00
2022-10-07T18:51:09.835Z,12.00
2022-10-07T18:53:37.765Z,12.00
2022-10-07T18:56:06.715Z,12.00
2022-10-07T18:58:35.237Z,11.90
2022-10-07T19:01:15.643Z,11.90
2022-10-07T19:03:43.053Z,11.90
2022-10-07T19:06:17.727Z,11.90
2022-10-07T19:08:46.024Z,11.90
2022-10-07T19:11:18.253Z,11.90
2022-10-07T19:13:48.508Z,11.90
2022-10-07T19:16:23.164Z,11.90
2022-10-07T19:18:52.481Z,11.90
2022-10-07T19:21:20.087Z,11.90
2022-10-07T19:23:48.413Z,11.90
2022-10-07T19:26:21.538Z,11.90
2022-10-07T19:28:49.808Z,11.90
2022-10-07T19:31:18.053Z,11.80
2022-10-07T19:33:46.202Z,11.80
2022-10-07T19:36:14.045Z,11.90
2022-10-07T19:38:44.124Z,11.80
2022-10-07T19:41:12.730Z,11.90
2022-10-07T19:43:40.729Z,11.90
2022-10-07T19:46:08.278Z,11.90
2022-10-07T19:48:35.961Z,11.90
2022-10-07T19:51:05.672Z,11.80
2022-10-07T19:53:35.989Z,11.80
2022-10-07T19:56:04.574Z,11.80
2022-10-07T19:58:31.782Z,11.80
2022-10-07T20:01:11.457Z,11.70
2022-10-07T20:03:38.697Z,11.70
2022-10-07T20:06:07.705Z,11.70
2022-10-07T20:08:36.553Z,11.70
2022-10-07T20:11:03.984Z,11.70
2022-10-07T20:13:32.655Z,11.70
2022-10-07T20:16:06.140Z,11.70
2022-10-07T20:18:34.105Z,11.70
2022-10-07T20:21:08.569Z,11.70
2022-10-07T20:23:36.588Z,11.70
2022-10-07T20:26:11.601Z,11.70
2022-10-07T20:28:38.883Z,11.70
2022-10-07T20:31:10.178Z,11.70
2022-10-07T20:33:39.135Z,11.70
2022-10-07T20:36:06.972Z,11.60
2022-10-07T20:38:54.493Z,11.60
2022-10-07T20:41:40.863Z,11.60
2022-10-07T20:44:08.227Z,11.50
2022-10-07T20:46:37.680Z,11.60
2022-10-07T20:49:21.168Z,11.50
2022-10-07T20:51:49.828Z,11.50
2022-10-07T20:54:18.529Z,11.50
2022-10-07T20:56:45.792Z,11.50
2022-10-07T20:59:13.286Z,11.40
2022-10-07T21:01:40.739Z,11.40
2022-10-07T21:04:08.673Z,11.40
2022-10-07T21:06:35.963Z,11.40
2022-10-07T21:09:04.313Z,11.40
2022-10-07T21:11:31.653Z,11.40
2022-10-07T21:13:58.953Z,11.40
2022-10-07T21:16:27.167Z,11.40
2022-10-07T21:18:54.467Z,11.40
2022-10-07T21:21:21.990Z,11.40
2022-10-07T21:23:49.202Z,11.40
2022-10-07T21:26:16.678Z,11.30
2022-10-07T21:28:44.153Z,11.30
2022-10-07T21:31:12.956Z,11.30
2022-10-07T21:33:40.286Z,11.30
2022-10-07T21:36:10.929Z,11.30
2022-10-07T21:38:38.157Z,11.30
2022-10-07T21:41:16.962Z,11.30
2022-10-07T21:43:51.175Z,11.30
2022-10-07T21:46:18.625Z,11.20
2022-10-07T21:48:46.761Z,11.20
2022-10-07T21:51:13.970Z,11.20
2022-10-07T21:53:41.162Z,11.20
2022-10-07T21:56:11.127Z,11.20
2022-10-07T21:58:38.351Z,11.20
2022-10-07T22:01:08.730Z,11.20
2022-10-07T22:03:35.973Z,11.10
2022-10-07T22:06:07.797Z,11.10
2022-10-07T22:08:35.399Z,11.10
2022-10-07T22:11:19.033Z,11.10
2022-10-07T22:13:51.539Z,11.10
2022-10-07T22:16:19.013Z,11.10
2022-10-07T22:18:49.290Z,11.10
2022-10-07T22:21:19.410Z,11.20
2022-10-07T22:23:50.549Z,11.20
2022-10-07T22:26:18.862Z,11.20
2022-10-07T22:28:46.558Z,11.10
2022-10-07T22:31:14.241Z,11.10
2022-10-07T22:33:41.669Z,11.10
2022-10-07T22:36:12.967Z,11.10
2022-10-07T22:38:43.304Z,11.10
2022-10-07T22:41:12.528Z,11.10
2022-10-07T22:43:40.507Z,11.00
2022-10-07T22:46:07.747Z,11.00
2022-10-07T22:48:35.076Z,11.00
2022-10-07T22:51:08.377Z,11.00
2022-10-07T22:53:36.167Z,10.90
2022-10-07T22:56:04.250Z,10.90
2022-10-07T22:58:31.590Z,10.90
2022-10-07T23:01:09.122Z,10.90
2022-10-07T23:03:38.553Z,10.80
2022-10-07T23:06:06.645Z,10.80
2022-10-07T23:08:34.866Z,10.80
2022-10-07T23:11:02.716Z,10.80
2022-10-07T23:13:32.173Z,10.80
2022-10-07T23:16:04.861Z,10.70
2022-10-07T23:18:32.619Z,10.70
2022-10-07T23:21:07.657Z,10.70
2022-10-07T23:23:38.167Z,10.70
2022-10-07T23:26:09.014Z,10.70
2022-10-07T23:28:36.323Z,10.70
2022-10-07T23:31:07.949Z,10.70
2022-10-07T23:33:35.436Z,10.70
2022-10-07T23:36:05.300Z,10.70
2022-10-07T23:38:33.254Z,10.70
2022-10-07T23:41:01.072Z,10.70
2022-10-07T23:43:33.213Z,10.70
2022-10-07T23:46:01.167Z,10.70
2022-10-07T23:48:28.629Z,10.70
2022-10-07T23:50:55.830Z,10.70
2022-10-07T23:53:23.127Z,10.60
2022-10-07T23:55:51.329Z,10.70
2022-10-07T23:58:20.225Z,10.60
